Time;durP1;ratioP1;P1;durP2;ratioP2;P2;SDS_P1;SDS_P2;PMS_P1;PMS_P2;Temp;Humidity;BMP_temperature;BMP_pressure;BME280_temperature;BME280_humidity;BME280_pressure;Samples;Min_cycle;Max_cycle;Signal;HPM_P1;HPM_P2
2022/12/25 00:01:14;;;;;;;163.27;87.65;;;;;;;;;;4906790;29;20040;-75
2022/12/25 00:03:40;;;;;;;147.43;81.35;;;;;;;;;;4905484;29;20036;-75
2022/12/25 00:06:07;;;;;;;147.25;78.55;;;;;;;;;;4905329;29;20070;-74
2022/12/25 00:08:35;;;;;;;133.60;72.07;;;;;;;;;;4904100;29;20048;-74
2022/12/25 00:11:03;;;;;;;134.88;70.60;;;;;;;;;;4905528;29;20025;-75
2022/12/25 00:13:31;;;;;;;140.27;79.43;;;;;;;;;;4907489;29;20024;-77
2022/12/25 00:15:56;;;;;;;148.10;74.68;;;;;;;;;;4903712;29;20028;-75
2022/12/25 00:18:23;;;;;;;149.98;81.30;;;;;;;;;;4899143;29;20253;-77
2022/12/25 00:21:00;;;;;;;145.30;78.93;;;;;;;;;;4904001;29;20055;-76
2022/12/25 00:23:27;;;;;;;162.77;83.72;;;;;;;;;;4900784;29;20120;-74
2022/12/25 00:25:53;;;;;;;186.27;101.13;;;;;;;;;;4907070;28;20666;-75
2022/12/25 00:28:20;;;;;;;182.57;104.60;;;;;;;;;;4904937;29;20036;-78
2022/12/25 00:30:46;;;;;;;185.18;102.53;;;;;;;;;;4903283;29;20104;-77
2022/12/25 00:33:13;;;;;;;159.65;87.78;;;;;;;;;;4905337;29;20068;-77
2022/12/25 00:35:38;;;;;;;141.27;80.03;;;;;;;;;;4904917;29;20035;-78
2022/12/25 00:38:04;;;;;;;170.60;92.20;;;;;;;;;;4906183;29;20033;-77
2022/12/25 00:40:30;;;;;;;174.65;96.20;;;;;;;;;;4897423;28;20054;-77
2022/12/25 00:42:56;;;;;;;152.65;81.75;;;;;;;;;;4891676;29;20495;-76
2022/12/25 00:45:22;;;;;;;155.70;82.78;;;;;;;;;;4904538;29;20048;-77
2022/12/25 00:47:50;;;;;;;139.85;74.72;;;;;;;;;;4901867;29;20029;-78
2022/12/25 00:50:17;;;;;;;148.68;77.13;;;;;;;;;;4904624;29;20039;-79
2022/12/25 00:52:43;;;;;;;148.13;77.43;;;;;;;;;;4903515;29;20044;-76
2022/12/25 00:55:09;;;;;;;144.30;73.38;;;;;;;;;;4907205;29;20036;-78
2022/12/25 00:57:34;;;;;;;147.85;77.60;;;;;;;;;;4905758;29;20119;-76
2022/12/25 01:00:00;;;;;;;151.55;78.97;;;;;;;;;;4902276;29;20115;-76
2022/12/25 01:02:26;;;;;;;145.23;76.20;;;;;;;;;;4905032;29;20417;-77
2022/12/25 01:04:56;;;;;;;147.70;79.53;;;;;;;;;;4906556;29;20059;-78
2022/12/25 01:07:24;;;;;;;157.15;84.78;;;;;;;;;;4906478;29;20048;-77
2022/12/25 01:12:39;;;;;;;137.40;73.72;;;;;;;;;;4904548;29;20045;-77
2022/12/25 01:15:09;;;;;;;176.13;97.05;;;;;;;;;;4906640;29;20032;-75
2022/12/25 01:17:35;;;;;;;158.85;83.75;;;;;;;;;;4908196;29;20064;-74
2022/12/25 01:20:02;;;;;;;163.73;87.00;;;;;;;;;;4911302;29;20056;-75
2022/12/25 01:22:28;;;;;;;144.30;76.35;;;;;;;;;;4910128;29;20044;-75
2022/12/25 01:24:53;;;;;;;126.20;68.70;;;;;;;;;;4911424;29;20384;-75
2022/12/25 01:27:19;;;;;;;131.23;70.70;;;;;;;;;;4910081;29;20649;-75
2022/12/25 01:29:45;;;;;;;139.45;75.43;;;;;;;;;;4911060;29;20024;-75
2022/12/25 01:32:12;;;;;;;142.20;76.57;;;;;;;;;;4911581;29;20045;-75
2022/12/25 01:34:38;;;;;;;137.88;77.45;;;;;;;;;;4910071;29;20036;-74
2022/12/25 01:37:04;;;;;;;150.90;77.97;;;;;;;;;;4906236;29;20040;-74
2022/12/25 01:39:30;;;;;;;144.07;75.88;;;;;;;;;;4909355;29;20058;-74
2022/12/25 01:41:56;;;;;;;154.15;86.18;;;;;;;;;;4910878;29;20043;-74
2022/12/25 01:44:34;;;;;;;166.80;90.55;;;;;;;;;;4907454;29;20020;-74
2022/12/25 01:47:00;;;;;;;153.50;80.70;;;;;;;;;;4909255;29;20409;-74
2022/12/25 01:49:26;;;;;;;168.15;87.38;;;;;;;;;;4907286;29;20088;-75
2022/12/25 01:51:57;;;;;;;164.65;86.80;;;;;;;;;;4909493;28;20060;-75
2022/12/25 01:54:33;;;;;;;165.40;85.70;;;;;;;;;;4910823;29;20040;-74
2022/12/25 01:57:02;;;;;;;158.35;80.80;;;;;;;;;;4903428;29;20491;-74
2022/12/25 01:59:28;;;;;;;160.40;86.30;;;;;;;;;;4908478;29;20034;-73
2022/12/25 02:01:55;;;;;;;160.80;89.13;;;;;;;;;;4905408;29;20068;-75
2022/12/25 02:04:39;;;;;;;149.30;83.65;;;;;;;;;;4908742;29;20077;-73
2022/12/25 02:07:15;;;;;;;148.57;78.88;;;;;;;;;;4913195;28;20109;-74
2022/12/25 02:09:43;;;;;;;157.18;84.75;;;;;;;;;;4907677;29;20036;-75
2022/12/25 02:12:16;;;;;;;161.98;85.45;;;;;;;;;;4905831;29;20036;-74
2022/12/25 02:14:43;;;;;;;166.85;93.35;;;;;;;;;;4909347;29;20042;-74
2022/12/25 02:17:22;;;;;;;156.45;86.22;;;;;;;;;;4908482;29;20126;-74
2022/12/25 02:20:26;;;;;;;137.80;74.22;;;;;;;;;;4907814;29;20055;-74
2022/12/25 02:23:09;;;;;;;138.80;71.95;;;;;;;;;;4909865;29;20503;-74
2022/12/25 02:25:44;;;;;;;133.75;73.22;;;;;;;;;;4905538;29;20064;-74
2022/12/25 02:28:23;;;;;;;140.60;73.68;;;;;;;;;;4906970;29;20566;-74
2022/12/25 02:31:14;;;;;;;137.68;71.78;;;;;;;;;;4922603;29;20040;-74
2022/12/25 02:34:01;;;;;;;137.00;70.20;;;;;;;;;;4934338;29;20035;-74
2022/12/25 02:36:44;;;;;;;93.93;46.80;;;;;;;;;;4924361;29;20037;-74
2022/12/25 03:06:41;;;;;;;59.17;31.20;;;;;;;;;;4898682;29;20494;-75
2022/12/25 03:07:42;;;;;;;69.50;34.22;;;;;;;;;;4906106;29;20119;-74
2022/12/25 03:13:05;;;;;;;64.55;32.00;;;;;;;;;;4907125;29;20028;-74
2022/12/25 03:18:23;;;;;;;62.90;32.40;;;;;;;;;;4908576;29;20466;-75
2022/12/25 03:31:10;;;;;;;59.42;32.28;;;;;;;;;;4903310;29;20043;-74
2022/12/25 03:32:22;;;;;;;62.22;32.28;;;;;;;;;;4905736;29;20462;-73
2022/12/25 04:36:57;;;;;;;67.75;36.35;;;;;;;;;;4902342;29;20040;-74
2022/12/25 04:39:22;;;;;;;70.63;35.67;;;;;;;;;;4904533;29;20031;-74
2022/12/25 04:41:48;;;;;;;65.07;36.65;;;;;;;;;;4903428;29;20044;-74
2022/12/25 04:44:14;;;;;;;63.85;33.38;;;;;;;;;;4905463;29;20023;-75
2022/12/25 04:46:40;;;;;;;61.05;34.03;;;;;;;;;;4903611;29;20054;-75
2022/12/25 04:49:05;;;;;;;64.70;33.97;;;;;;;;;;4904867;29;20020;-75
2022/12/25 04:51:31;;;;;;;60.45;34.22;;;;;;;;;;4909552;29;20045;-75
2022/12/25 04:53:57;;;;;;;65.80;34.50;;;;;;;;;;4906993;29;20860;-75
2022/12/25 04:56:23;;;;;;;75.88;38.58;;;;;;;;;;4908239;29;20044;-73
2022/12/25 04:58:50;;;;;;;66.50;34.67;;;;;;;;;;4907009;29;20119;-74
2022/12/25 05:01:16;;;;;;;62.13;32.03;;;;;;;;;;4906554;29;20487;-75
2022/12/25 05:03:41;;;;;;;71.25;34.65;;;;;;;;;;4897863;29;20025;-75
2022/12/25 05:06:07;;;;;;;58.00;32.10;;;;;;;;;;4900525;29;20042;-74
2022/12/25 05:08:34;;;;;;;60.83;34.63;;;;;;;;;;4918472;29;20106;-74
2022/12/25 05:11:04;;;;;;;62.60;32.08;;;;;;;;;;4916329;29;20046;-74
2022/12/25 05:13:30;;;;;;;57.28;31.13;;;;;;;;;;4916472;29;20482;-75
2022/12/25 05:15:56;;;;;;;64.13;32.75;;;;;;;;;;4915321;29;20076;-75
2022/12/25 05:18:22;;;;;;;64.25;33.97;;;;;;;;;;4916551;29;20036;-75
2022/12/25 05:20:53;;;;;;;63.95;35.05;;;;;;;;;;4918591;29;20078;-75
2022/12/25 05:23:19;;;;;;;64.13;35.60;;;;;;;;;;4918431;29;20055;-75
2022/12/25 05:25:45;;;;;;;58.72;32.53;;;;;;;;;;4919675;29;20052;-74
2022/12/25 05:28:11;;;;;;;63.47;34.33;;;;;;;;;;4919651;29;20520;-75
2022/12/25 05:30:36;;;;;;;65.25;34.40;;;;;;;;;;4919709;29;20060;-75
2022/12/25 05:33:02;;;;;;;67.60;36.85;;;;;;;;;;4917950;29;20127;-74
2022/12/25 05:35:28;;;;;;;62.85;37.60;;;;;;;;;;4902288;29;20036;-75
2022/12/25 05:37:54;;;;;;;64.38;37.03;;;;;;;;;;4918792;29;20036;-75
2022/12/25 05:40:19;;;;;;;69.55;36.10;;;;;;;;;;4918337;29;20398;-75
2022/12/25 05:42:45;;;;;;;65.47;36.85;;;;;;;;;;4918332;29;20044;-75
2022/12/25 05:45:11;;;;;;;69.75;39.05;;;;;;;;;;4917198;29;20111;-75
2022/12/25 05:47:37;;;;;;;73.18;37.95;;;;;;;;;;4916938;29;20059;-75
2022/12/25 05:50:04;;;;;;;66.38;36.75;;;;;;;;;;4918113;29;20031;-74
2022/12/25 05:52:33;;;;;;;73.68;39.40;;;;;;;;;;4916870;29;20057;-74
2022/12/25 05:55:00;;;;;;;63.00;35.70;;;;;;;;;;4915300;29;20035;-75
2022/12/25 05:57:29;;;;;;;67.47;38.25;;;;;;;;;;4918474;29;20047;-75
2022/12/25 05:59:55;;;;;;;66.72;38.58;;;;;;;;;;4915441;29;20024;-77
2022/12/25 06:02:21;;;;;;;66.47;37.88;;;;;;;;;;4912643;29;20030;-76
2022/12/25 06:04:46;;;;;;;59.05;37.78;;;;;;;;;;4913296;29;20467;-74
2022/12/25 06:07:12;;;;;;;70.82;41.60;;;;;;;;;;4916402;29;20035;-75
2022/12/25 06:09:38;;;;;;;78.53;43.42;;;;;;;;;;4917499;29;20039;-75
2022/12/25 06:12:04;;;;;;;68.43;39.00;;;;;;;;;;4917718;29;20028;-75
2022/12/25 06:14:30;;;;;;;69.82;40.65;;;;;;;;;;4918120;29;20024;-75
2022/12/25 06:16:55;;;;;;;71.15;40.35;;;;;;;;;;4917001;29;20137;-75
2022/12/25 06:19:21;;;;;;;67.22;37.35;;;;;;;;;;4918128;29;20055;-76
2022/12/25 06:21:47;;;;;;;69.03;39.17;;;;;;;;;;4918159;29;20043;-76
2022/12/25 06:24:14;;;;;;;66.72;39.10;;;;;;;;;;4918247;29;20028;-75
2022/12/25 06:26:39;;;;;;;66.50;40.15;;;;;;;;;;4918383;29;20166;-75
2022/12/25 06:29:05;;;;;;;66.55;38.08;;;;;;;;;;4918293;29;20036;-76
2022/12/25 06:31:31;;;;;;;69.07;41.13;;;;;;;;;;4917138;29;20115;-75
2022/12/25 06:33:57;;;;;;;64.43;38.03;;;;;;;;;;4906515;29;20032;-76
2022/12/25 06:36:25;;;;;;;67.90;42.20;;;;;;;;;;4917665;29;20486;-76
2022/12/25 06:38:52;;;;;;;74.35;42.63;;;;;;;;;;4917893;29;20415;-76
2022/12/25 06:41:23;;;;;;;67.05;42.20;;;;;;;;;;4916752;29;20047;-75
2022/12/25 06:43:51;;;;;;;65.38;40.92;;;;;;;;;;4917869;29;20155;-76
2022/12/25 06:46:18;;;;;;;64.95;39.88;;;;;;;;;;4917676;29;20031;-74
2022/12/25 06:48:48;;;;;;;53.33;35.63;;;;;;;;;;4916425;29;20410;-75
2022/12/25 06:51:23;;;;;;;55.42;36.25;;;;;;;;;;4917490;29;20546;-76
2022/12/25 06:53:50;;;;;;;60.50;36.65;;;;;;;;;;4915205;29;20032;-76
2022/12/25 06:56:18;;;;;;;72.75;41.80;;;;;;;;;;4915948;29;20020;-76
2022/12/25 06:58:47;;;;;;;86.25;46.90;;;;;;;;;;4916944;29;20035;-76
2022/12/25 07:01:32;;;;;;;99.40;59.05;;;;;;;;;;4915754;29;20020;-76
2022/12/25 07:04:01;;;;;;;97.20;58.30;;;;;;;;;;4915946;29;20030;-75
2022/12/25 07:06:27;;;;;;;87.78;51.03;;;;;;;;;;4916605;29;20020;-74
2022/12/25 07:08:53;;;;;;;83.25;52.25;;;;;;;;;;4916989;29;20032;-73
2022/12/25 07:11:19;;;;;;;90.00;50.95;;;;;;;;;;4916790;29;20494;-77
2022/12/25 07:13:45;;;;;;;81.57;48.90;;;;;;;;;;4911049;29;20072;-76
2022/12/25 07:16:12;;;;;;;66.95;44.65;;;;;;;;;;4915426;29;20073;-76
2022/12/25 07:18:39;;;;;;;70.55;43.70;;;;;;;;;;4916679;29;20031;-75
2022/12/25 07:21:18;;;;;;;67.72;42.88;;;;;;;;;;4917004;29;20566;-74
2022/12/25 07:23:46;;;;;;;71.00;42.75;;;;;;;;;;4913952;29;20052;-74
2022/12/25 07:26:13;;;;;;;78.57;45.78;;;;;;;;;;4914446;29;20032;-73
2022/12/25 07:28:39;;;;;;;74.53;47.97;;;;;;;;;;4916738;29;20036;-74
2022/12/25 07:31:09;;;;;;;75.38;47.47;;;;;;;;;;4916487;29;20028;-74
2022/12/25 07:33:35;;;;;;;84.55;49.25;;;;;;;;;;4908732;29;20093;-77
2022/12/25 07:36:01;;;;;;;79.82;48.33;;;;;;;;;;4897261;29;20119;-77
2022/12/25 07:38:27;;;;;;;85.10;50.45;;;;;;;;;;4898418;29;20068;-78
2022/12/25 07:40:53;;;;;;;87.28;54.10;;;;;;;;;;4897571;29;20036;-74
2022/12/25 07:43:19;;;;;;;83.95;50.83;;;;;;;;;;4903937;29;20103;-75
2022/12/25 07:45:45;;;;;;;83.30;51.10;;;;;;;;;;4901487;29;20479;-76
2022/12/25 07:48:11;;;;;;;115.82;67.28;;;;;;;;;;4898016;29;20068;-78
2022/12/25 07:50:37;;;;;;;114.20;64.68;;;;;;;;;;4897264;29;20454;-76
2022/12/25 07:53:04;;;;;;;115.35;67.10;;;;;;;;;;4897941;29;20048;-75
2022/12/25 07:55:29;;;;;;;92.93;53.33;;;;;;;;;;4922067;29;20462;-72
2022/12/25 07:57:55;;;;;;;105.57;60.30;;;;;;;;;;4917107;29;20096;-75
2022/12/25 08:00:21;;;;;;;93.18;56.55;;;;;;;;;;4917378;29;20398;-75
2022/12/25 08:02:50;;;;;;;89.60;53.95;;;;;;;;;;4917352;29;20510;-74
2022/12/25 08:05:15;;;;;;;111.30;65.47;;;;;;;;;;4916778;29;20031;-72
2022/12/25 08:07:41;;;;;;;106.88;64.30;;;;;;;;;;4903133;29;20403;-72
2022/12/25 08:10:07;;;;;;;109.32;64.75;;;;;;;;;;4916363;29;20475;-75
2022/12/25 08:12:33;;;;;;;124.05;71.47;;;;;;;;;;4915990;29;20039;-75
2022/12/25 08:14:59;;;;;;;122.40;78.20;;;;;;;;;;4919595;29;20115;-73
2022/12/25 08:17:24;;;;;;;141.15;85.65;;;;;;;;;;4917460;29;20071;-72
2022/12/25 08:19:50;;;;;;;159.68;95.40;;;;;;;;;;4917373;29;20467;-72
2022/12/25 08:22:16;;;;;;;158.05;95.30;;;;;;;;;;4916985;29;20095;-73
2022/12/25 08:24:42;;;;;;;153.73;97.45;;;;;;;;;;4915966;29;20024;-73
2022/12/25 08:27:07;;;;;;;151.70;93.43;;;;;;;;;;4916169;29;20529;-77
2022/12/25 08:29:33;;;;;;;156.05;98.97;;;;;;;;;;4911895;29;20032;-74
2022/12/25 08:32:00;;;;;;;155.00;94.72;;;;;;;;;;4915770;29;20506;-73
2022/12/25 08:34:26;;;;;;;151.13;91.28;;;;;;;;;;4916022;29;20036;-74
2022/12/25 08:36:51;;;;;;;151.98;88.43;;;;;;;;;;4916205;29;20098;-73
2022/12/25 08:39:17;;;;;;;146.10;85.25;;;;;;;;;;4914816;29;20042;-73
2022/12/25 08:41:43;;;;;;;128.85;75.47;;;;;;;;;;4915764;29;20118;-72
2022/12/25 08:44:11;;;;;;;123.18;74.72;;;;;;;;;;4916091;29;20090;-73
2022/12/25 08:46:38;;;;;;;130.70;77.20;;;;;;;;;;4898542;29;20059;-73
2022/12/25 08:49:04;;;;;;;141.05;86.40;;;;;;;;;;4896872;29;20036;-72
2022/12/25 08:51:30;;;;;;;137.15;82.80;;;;;;;;;;4896885;29;20044;-71
2022/12/25 08:53:58;;;;;;;136.95;86.65;;;;;;;;;;4905709;29;20032;-71
2022/12/25 08:56:25;;;;;;;127.95;78.65;;;;;;;;;;4915398;29;20036;-73
2022/12/25 08:58:51;;;;;;;124.72;75.43;;;;;;;;;;4914424;29;20024;-72
2022/12/25 09:01:17;;;;;;;125.45;76.25;;;;;;;;;;4913844;29;20087;-72
2022/12/25 09:03:42;;;;;;;133.90;82.78;;;;;;;;;;4915279;29;20099;-72
2022/12/25 09:06:13;;;;;;;153.77;92.35;;;;;;;;;;4915260;29;20056;-73
2022/12/25 09:08:39;;;;;;;152.57;89.97;;;;;;;;;;4915461;29;20088;-72
2022/12/25 09:11:08;;;;;;;145.43;88.57;;;;;;;;;;4915222;29;20035;-72
2022/12/25 09:13:34;;;;;;;140.63;82.47;;;;;;;;;;4914342;29;20044;-72
2022/12/25 09:16:05;;;;;;;132.20;84.28;;;;;;;;;;4915546;29;20039;-73
2022/12/25 09:18:31;;;;;;;118.85;73.18;;;;;;;;;;4915070;29;20490;-72
2022/12/25 09:21:02;;;;;;;114.40;72.50;;;;;;;;;;4913383;29;20052;-72
2022/12/25 09:23:29;;;;;;;113.65;70.05;;;;;;;;;;4912938;29;20116;-72
2022/12/25 09:26:00;;;;;;;125.85;75.28;;;;;;;;;;4915687;29;20127;-73
2022/12/25 09:28:27;;;;;;;117.65;70.35;;;;;;;;;;4913122;29;20106;-72
2022/12/25 09:30:53;;;;;;;113.95;67.78;;;;;;;;;;4915104;29;20028;-72
2022/12/25 09:33:20;;;;;;;99.82;59.03;;;;;;;;;;4913601;29;20046;-72
2022/12/25 09:35:57;;;;;;;99.05;60.30;;;;;;;;;;4915850;29;20030;-73
2022/12/25 09:38:23;;;;;;;110.32;64.95;;;;;;;;;;4918497;29;20028;-72
2022/12/25 09:41:01;;;;;;;107.60;65.30;;;;;;;;;;4918403;29;20028;-72
2022/12/25 09:43:29;;;;;;;101.05;63.92;;;;;;;;;;4917517;29;20066;-71
2022/12/25 09:45:58;;;;;;;106.45;64.93;;;;;;;;;;4905893;29;20035;-72
2022/12/25 09:48:26;;;;;;;96.22;62.13;;;;;;;;;;4915460;29;20040;-71
2022/12/25 09:51:01;;;;;;;108.30;65.03;;;;;;;;;;4918013;29;20020;-71
2022/12/25 09:53:39;;;;;;;103.05;58.55;;;;;;;;;;4916680;29;20043;-71
2022/12/25 09:56:12;;;;;;;106.15;61.03;;;;;;;;;;4916311;29;20032;-73
2022/12/25 09:58:38;;;;;;;96.90;58.20;;;;;;;;;;4916711;29;20084;-72
2022/12/25 10:01:19;;;;;;;93.97;54.88;;;;;;;;;;4917338;29;20475;-72
2022/12/25 10:04:24;;;;;;;85.15;49.40;;;;;;;;;;4915800;29;20035;-72
2022/12/25 10:06:52;;;;;;;76.78;49.22;;;;;;;;;;4915907;29;20431;-72
2022/12/25 10:09:33;;;;;;;75.57;49.58;;;;;;;;;;4917537;29;20038;-72
2022/12/25 10:12:29;;;;;;;85.68;51.97;;;;;;;;;;4916788;29;20119;-72
2022/12/25 10:15:18;;;;;;;89.68;52.08;;;;;;;;;;4925490;29;20048;-72
2022/12/25 10:17:59;;;;;;;87.50;50.72;;;;;;;;;;4913385;29;20028;-71
2022/12/25 10:20:50;;;;;;;82.20;52.08;;;;;;;;;;4915417;29;20047;-71
2022/12/25 10:23:29;;;;;;;88.22;51.45;;;;;;;;;;4916003;29;20035;-73
2022/12/25 10:25:55;;;;;;;88.22;50.75;;;;;;;;;;4917709;29;20084;-70
2022/12/25 10:28:41;;;;;;;80.47;46.85;;;;;;;;;;4916966;29;20058;-70
2022/12/25 10:31:20;;;;;;;76.03;47.05;;;;;;;;;;4915589;29;20115;-71
2022/12/25 10:33:48;;;;;;;86.22;50.58;;;;;;;;;;4914197;29;20039;-70
2022/12/25 10:36:17;;;;;;;85.40;51.75;;;;;;;;;;4915955;29;20036;-69
2022/12/25 10:38:43;;;;;;;101.90;57.03;;;;;;;;;;4914837;29;20406;-72
2022/12/25 10:41:25;;;;;;;116.20;67.43;;;;;;;;;;4916561;29;20023;-71
2022/12/25 10:43:54;;;;;;;108.68;63.70;;;;;;;;;;4914816;29;20062;-72
2022/12/25 10:46:23;;;;;;;105.93;61.03;;;;;;;;;;4916404;29;20099;-72
2022/12/25 10:48:52;;;;;;;102.68;58.92;;;;;;;;;;4915002;29;20044;-71
2022/12/25 10:51:32;;;;;;;104.93;63.50;;;;;;;;;;4916259;29;20020;-73
2022/12/25 10:54:00;;;;;;;105.38;64.95;;;;;;;;;;4912901;29;20439;-72
2022/12/25 10:56:25;;;;;;;110.13;62.25;;;;;;;;;;4916258;29;20020;-72
2022/12/25 10:59:03;;;;;;;105.28;63.53;;;;;;;;;;4916282;29;20110;-71
2022/12/25 11:01:29;;;;;;;105.97;60.50;;;;;;;;;;4916076;29;20036;-72
2022/12/25 11:03:55;;;;;;;96.07;58.10;;;;;;;;;;4914043;29;20035;-70
2022/12/25 11:06:30;;;;;;;101.18;64.32;;;;;;;;;;4912392;29;20043;-71
2022/12/25 11:08:59;;;;;;;96.22;59.63;;;;;;;;;;4914229;29;20071;-71
2022/12/25 11:11:27;;;;;;;107.72;65.43;;;;;;;;;;4915971;29;20098;-73
2022/12/25 11:13:56;;;;;;;102.28;61.85;;;;;;;;;;4914824;29;20081;-72
2022/12/25 11:16:35;;;;;;;111.07;67.78;;;;;;;;;;4906300;29;20024;-73
2022/12/25 11:19:01;;;;;;;109.05;64.10;;;;;;;;;;4916600;29;20485;-72
2022/12/25 11:21:32;;;;;;;121.38;68.70;;;;;;;;;;4916817;29;20043;-72
2022/12/25 11:24:16;;;;;;;109.00;66.88;;;;;;;;;;4911346;29;20048;-73
2022/12/25 11:26:47;;;;;;;90.18;57.08;;;;;;;;;;4914588;29;20070;-71
2022/12/25 11:29:29;;;;;;;94.43;55.35;;;;;;;;;;4911983;29;20036;-72
2022/12/25 11:31:58;;;;;;;92.15;58.58;;;;;;;;;;4912612;29;20126;-73
2022/12/25 11:34:32;;;;;;;105.68;62.78;;;;;;;;;;4914177;29;20032;-72
2022/12/25 11:36:59;;;;;;;114.38;68.43;;;;;;;;;;4912604;29;20043;-73
2022/12/25 11:39:36;;;;;;;101.53;62.70;;;;;;;;;;4915928;29;20020;-73
2022/12/25 11:42:11;;;;;;;101.03;60.65;;;;;;;;;;4915055;29;20040;-72
2022/12/25 11:44:48;;;;;;;95.57;58.63;;;;;;;;;;4913812;29;20048;-71
2022/12/25 11:47:27;;;;;;;97.72;57.58;;;;;;;;;;4912853;29;20035;-70
2022/12/25 11:50:06;;;;;;;109.07;60.72;;;;;;;;;;4913580;29;20071;-71
2022/12/25 11:52:37;;;;;;;102.43;62.70;;;;;;;;;;4913849;29;20043;-72
2022/12/25 11:55:17;;;;;;;98.00;59.72;;;;;;;;;;4914923;29;20047;-71
2022/12/25 11:57:46;;;;;;;87.35;52.95;;;;;;;;;;4915885;29;20449;-72
2022/12/25 12:00:15;;;;;;;98.55;59.65;;;;;;;;;;4916022;29;20044;-71
2022/12/25 12:03:02;;;;;;;90.80;58.22;;;;;;;;;;4916259;29;20505;-71
2022/12/25 12:05:49;;;;;;;90.88;55.15;;;;;;;;;;4916335;29;20048;-72
2022/12/25 12:08:15;;;;;;;77.30;47.45;;;;;;;;;;4910566;29;20039;-69
2022/12/25 12:11:14;;;;;;;88.63;52.17;;;;;;;;;;4909105;29;20028;-72
2022/12/25 12:13:58;;;;;;;100.95;58.00;;;;;;;;;;4907860;29;20041;-71
2022/12/25 12:16:24;;;;;;;82.07;50.67;;;;;;;;;;4898742;29;20037;-71
2022/12/25 12:18:50;;;;;;;85.05;51.65;;;;;;;;;;4913706;29;20036;-69
2022/12/25 12:21:29;;;;;;;82.30;50.67;;;;;;;;;;4910835;29;20064;-70
2022/12/25 12:24:15;;;;;;;69.30;45.90;;;;;;;;;;4914204;29;20111;-70
2022/12/25 12:26:45;;;;;;;76.43;48.08;;;;;;;;;;4896779;29;20135;-70
2022/12/25 12:29:30;;;;;;;85.80;47.50;;;;;;;;;;4896504;29;20036;-70
2022/12/25 12:32:03;;;;;;;82.80;49.80;;;;;;;;;;4897105;29;20071;-69
2022/12/25 12:34:43;;;;;;;77.05;48.90;;;;;;;;;;4911074;29;20039;-69
2022/12/25 12:37:18;;;;;;;86.10;55.97;;;;;;;;;;4897445;29;20132;-70
2022/12/25 12:39:44;;;;;;;85.93;53.40;;;;;;;;;;4897215;29;20039;-70
2022/12/25 12:42:20;;;;;;;99.82;58.45;;;;;;;;;;4897012;29;20032;-71
2022/12/25 12:44:48;;;;;;;79.05;48.00;;;;;;;;;;4896708;29;20029;-70
2022/12/25 12:47:39;;;;;;;75.40;46.83;;;;;;;;;;4896792;29;20060;-69
2022/12/25 12:50:06;;;;;;;72.72;45.17;;;;;;;;;;4895809;29;20042;-70
2022/12/25 12:52:36;;;;;;;70.38;46.00;;;;;;;;;;4895967;29;20031;-69
2022/12/25 12:55:04;;;;;;;86.85;52.70;;;;;;;;;;4896285;29;20040;-70
2022/12/25 12:57:38;;;;;;;82.70;49.95;;;;;;;;;;4896684;29;20048;-69
2022/12/25 13:00:14;;;;;;;85.55;50.58;;;;;;;;;;4896498;29;20037;-71
2022/12/25 13:02:53;;;;;;;83.47;51.08;;;;;;;;;;4916278;29;20047;-70
2022/12/25 13:05:40;;;;;;;70.35;44.85;;;;;;;;;;4917017;29;20036;-70
2022/12/25 13:08:15;;;;;;;66.00;42.17;;;;;;;;;;4915384;29;20604;-69
2022/12/25 13:10:49;;;;;;;66.72;41.83;;;;;;;;;;4914133;29;20050;-69
2022/12/25 13:13:29;;;;;;;58.00;38.20;;;;;;;;;;4917965;29;20261;-69
2022/12/25 13:15:56;;;;;;;62.45;39.60;;;;;;;;;;4917269;29;20054;-71
2022/12/25 13:18:22;;;;;;;52.13;34.33;;;;;;;;;;4919036;29;20111;-71
2022/12/25 13:20:58;;;;;;;56.53;37.10;;;;;;;;;;4917023;29;20079;-71
2022/12/25 13:23:31;;;;;;;55.92;36.75;;;;;;;;;;4918947;29;20099;-71
2022/12/25 13:25:58;;;;;;;49.50;32.17;;;;;;;;;;4919217;29;20455;-73
2022/12/25 13:28:28;;;;;;;45.25;28.65;;;;;;;;;;4918373;29;20028;-72
2022/12/25 13:31:10;;;;;;;53.50;32.22;;;;;;;;;;4917664;29;20562;-72
2022/12/25 13:33:38;;;;;;;40.03;27.00;;;;;;;;;;4917875;29;20032;-72
2022/12/25 13:36:09;;;;;;;54.42;34.67;;;;;;;;;;4917953;29;20110;-72
2022/12/25 13:38:37;;;;;;;56.63;35.65;;;;;;;;;;4918831;29;20036;-71
2022/12/25 13:43:58;;;;;;;42.95;26.00;;;;;;;;;;4933370;29;20514;-72
2022/12/25 13:46:26;;;;;;;38.13;25.38;;;;;;;;;;4918653;29;20032;-70
2022/12/25 13:48:59;;;;;;;35.17;23.45;;;;;;;;;;4918294;29;20475;-72
2022/12/25 13:51:26;;;;;;;33.17;20.13;;;;;;;;;;4918529;29;20490;-72
2022/12/25 13:54:03;;;;;;;34.55;22.77;;;;;;;;;;4916779;29;20446;-71
2022/12/25 13:56:30;;;;;;;37.70;24.75;;;;;;;;;;4918382;29;20032;-71
2022/12/25 13:58:56;;;;;;;35.70;23.88;;;;;;;;;;4918270;29;20453;-72
2022/12/25 14:01:22;;;;;;;36.90;23.30;;;;;;;;;;4917139;29;20068;-71
2022/12/25 14:03:49;;;;;;;36.67;24.38;;;;;;;;;;4918617;29;20106;-72
2022/12/25 14:06:20;;;;;;;43.20;25.98;;;;;;;;;;4918425;29;20042;-73
2022/12/25 14:08:47;;;;;;;42.85;27.45;;;;;;;;;;4918106;29;20398;-73
2022/12/25 14:11:15;;;;;;;51.45;30.20;;;;;;;;;;4918249;29;20035;-73
2022/12/25 14:13:45;;;;;;;50.88;32.45;;;;;;;;;;4918203;29;20060;-73
2022/12/25 14:16:14;;;;;;;49.20;31.58;;;;;;;;;;4917985;29;20067;-71
2022/12/25 14:18:53;;;;;;;52.17;30.95;;;;;;;;;;4918084;29;20043;-71
2022/12/25 14:21:24;;;;;;;43.95;28.35;;;;;;;;;;4917273;29;20410;-72
2022/12/25 14:23:51;;;;;;;41.83;25.33;;;;;;;;;;4917979;29;20095;-70
2022/12/25 14:26:29;;;;;;;34.03;22.35;;;;;;;;;;4908668;29;20542;-71
2022/12/25 14:29:01;;;;;;;33.30;21.85;;;;;;;;;;4899139;29;20037;-70
2022/12/25 14:31:28;;;;;;;40.53;24.67;;;;;;;;;;4898629;29;20500;-71
2022/12/25 14:33:54;;;;;;;41.20;25.33;;;;;;;;;;4900111;29;20025;-71
2022/12/25 14:36:21;;;;;;;47.30;28.10;;;;;;;;;;4899816;29;20033;-70
2022/12/25 14:39:01;;;;;;;42.97;26.60;;;;;;;;;;4897751;29;20024;-70
2022/12/25 14:41:33;;;;;;;58.40;30.67;;;;;;;;;;4897611;29;20056;-70
2022/12/25 14:44:01;;;;;;;56.97;31.83;;;;;;;;;;4898501;29;20043;-71
2022/12/25 14:46:29;;;;;;;49.40;29.20;;;;;;;;;;4911656;29;20028;-70
2022/12/25 14:49:03;;;;;;;46.53;30.35;;;;;;;;;;4917099;29;20036;-70
2022/12/25 14:51:31;;;;;;;50.90;31.92;;;;;;;;;;4917336;29;20483;-72
2022/12/25 14:54:02;;;;;;;56.95;35.00;;;;;;;;;;4916959;29;20047;-72
2022/12/25 14:56:36;;;;;;;50.72;33.03;;;;;;;;;;4913323;29;20036;-72
2022/12/25 14:59:03;;;;;;;51.65;32.63;;;;;;;;;;4915156;29;20032;-73
2022/12/25 15:01:36;;;;;;;61.78;39.85;;;;;;;;;;4917388;29;20600;-72
2022/12/25 15:04:11;;;;;;;60.60;36.92;;;;;;;;;;4912399;29;20039;-71
2022/12/25 15:06:58;;;;;;;57.00;36.45;;;;;;;;;;4916701;29;20040;-72
2022/12/25 15:09:24;;;;;;;50.85;33.97;;;;;;;;;;4916364;29;20036;-73
2022/12/25 15:11:52;;;;;;;55.83;33.95;;;;;;;;;;4916796;29;20030;-72
2022/12/25 15:14:18;;;;;;;52.35;34.63;;;;;;;;;;4915446;29;20032;-71
2022/12/25 15:16:50;;;;;;;62.45;36.35;;;;;;;;;;4913106;29;20024;-71
2022/12/25 15:19:25;;;;;;;59.45;37.70;;;;;;;;;;4914703;29;20052;-73
2022/12/25 15:21:51;;;;;;;65.28;37.05;;;;;;;;;;4912799;29;20119;-73
2022/12/25 15:24:17;;;;;;;60.67;37.47;;;;;;;;;;4915564;29;20031;-73
2022/12/25 15:26:43;;;;;;;73.53;43.47;;;;;;;;;;4915676;29;20119;-73
2022/12/25 15:29:10;;;;;;;94.93;54.70;;;;;;;;;;4915545;29;20019;-71
2022/12/25 15:31:37;;;;;;;106.72;58.97;;;;;;;;;;4915088;29;20040;-72
2022/12/25 15:34:20;;;;;;;109.57;59.72;;;;;;;;;;4915483;29;20423;-72
2022/12/25 15:36:52;;;;;;;107.50;60.80;;;;;;;;;;4914524;29;20036;-71
2022/12/25 15:39:17;;;;;;;144.18;79.47;;;;;;;;;;4915928;29;20028;-72
2022/12/25 15:44:39;;;;;;;132.70;71.22;;;;;;;;;;4913280;29;20040;-74
2022/12/25 15:47:05;;;;;;;123.55;68.70;;;;;;;;;;4915784;29;20028;-71
2022/12/25 15:49:31;;;;;;;134.75;75.45;;;;;;;;;;4915691;29;20051;-72
2022/12/25 15:51:57;;;;;;;132.90;79.88;;;;;;;;;;4916069;29;20079;-71
2022/12/25 15:54:23;;;;;;;121.35;71.05;;;;;;;;;;4916041;29;20036;-73
2022/12/25 15:56:57;;;;;;;117.93;70.25;;;;;;;;;;4916143;29;20051;-72
2022/12/25 15:59:25;;;;;;;119.43;70.15;;;;;;;;;;4916407;29;20036;-72
2022/12/25 16:01:55;;;;;;;118.03;71.40;;;;;;;;;;4915962;29;20078;-73
2022/12/25 16:04:23;;;;;;;120.50;70.70;;;;;;;;;;4898910;29;20064;-73
2022/12/25 16:06:49;;;;;;;124.88;71.90;;;;;;;;;;4913411;29;20162;-72
2022/12/25 16:09:17;;;;;;;123.18;70.72;;;;;;;;;;4915583;29;20431;-74
2022/12/25 16:11:43;;;;;;;110.85;63.88;;;;;;;;;;4915267;29;20036;-74
2022/12/25 16:14:10;;;;;;;112.70;65.22;;;;;;;;;;4913102;29;20490;-73
2022/12/25 16:16:36;;;;;;;118.45;64.88;;;;;;;;;;4915449;29;20052;-73
2022/12/25 16:19:05;;;;;;;116.97;66.20;;;;;;;;;;4925360;29;20080;-74